createdAt,value
2022-12-09T00:02:34.592Z,99940.84
2022-12-09T00:05:11.211Z,99950.66
2022-12-09T00:07:45.531Z,99942.72
2022-12-09T00:10:20.336Z,99960.59
2022-12-09T00:12:56.286Z,99956.09
2022-12-09T00:15:30.847Z,99948.59
2022-12-09T00:18:06.205Z,99947.50
2022-12-09T00:20:42.548Z,99961.38
2022-12-09T00:23:16.758Z,99949.28
2022-12-09T00:25:51.171Z,99941.72
2022-12-09T00:28:25.316Z,99948.84
2022-12-09T00:31:00.732Z,99951.06
2022-12-09T00:33:36.575Z,99950.31
2022-12-09T00:36:14.662Z,99944.78
2022-12-09T00:38:50.177Z,99950.97
2022-12-09T00:41:25.166Z,99941.53
2022-12-09T00:44:00.042Z,99937.63
2022-12-09T00:46:34.729Z,99940.25
2022-12-09T00:49:09.194Z,99939.81
2022-12-09T00:51:45.507Z,99937.63
2022-12-09T00:54:19.803Z,99951.41
2022-12-09T00:56:54.457Z,99940.31
2022-12-09T00:59:29.129Z,99947.47
2022-12-09T01:02:04.071Z,99956.75
2022-12-09T01:04:38.839Z,99958.38
2022-12-09T01:07:15.142Z,99956.41
2022-12-09T01:09:49.301Z,99961.53
2022-12-09T01:12:23.720Z,99959.25
2022-12-09T01:14:57.952Z,99969.47
2022-12-09T01:17:32.611Z,99964.94
2022-12-09T01:20:10.314Z,99962.56
2022-12-09T01:22:47.627Z,99962.13
2022-12-09T01:25:21.961Z,99961.47
2022-12-09T01:27:56.675Z,99956.94
2022-12-09T01:30:30.842Z,99961.03
2022-12-09T01:33:05.661Z,99963.75
2022-12-09T01:35:41.612Z,99969.38
2022-12-09T01:38:17.549Z,99967.25
2022-12-09T01:40:51.720Z,99957.97
2022-12-09T01:43:26.213Z,99958.06
2022-12-09T01:46:00.460Z,99959.00
2022-12-09T01:48:39.534Z,99942.72
2022-12-09T01:51:16.953Z,99933.09
2022-12-09T01:53:53.730Z,99925.09
2022-12-09T01:56:30.382Z,99932.66
2022-12-09T01:59:10.444Z,99934.19
2022-12-09T02:01:49.534Z,99941.19
2022-12-09T02:04:24.626Z,99924.63
2022-12-09T02:07:01.635Z,99933.44
2022-12-09T02:09:38.118Z,99943.00
2022-12-09T02:12:16.093Z,99940.75
2022-12-09T02:15:00.151Z,99936.94
2022-12-09T02:17:41.190Z,99934.88
2022-12-09T02:20:24.292Z,99942.22
2022-12-09T02:23:07.576Z,99942.03
2022-12-09T02:25:48.144Z,99934.56
2022-12-09T02:28:37.843Z,99937.19
2022-12-09T02:31:25.741Z,99934.81
2022-12-09T02:34:15.419Z,99930.47
2022-12-09T02:36:59.042Z,99928.59
2022-12-09T02:39:39.976Z,99922.47
2022-12-09T02:42:18.139Z,99920.41
2022-12-09T02:44:54.962Z,99910.19
2022-12-09T02:47:32.850Z,99914.25
2022-12-09T02:50:13.841Z,99918.00
2022-12-09T02:52:50.827Z,99913.75
2022-12-09T02:55:25.578Z,99919.53
2022-12-09T02:58:05.324Z,99908.63
2022-12-09T03:00:41.917Z,99911.34
2022-12-09T03:03:19.246Z,99907.88
2022-12-09T03:06:02.236Z,99907.97
2022-12-09T03:08:44.778Z,99908.84
2022-12-09T03:11:21.371Z,99907.13
2022-12-09T03:14:00.773Z,99906.53
2022-12-09T03:16:37.777Z,99902.75
2022-12-09T03:19:18.673Z,99899.03
2022-12-09T03:21:58.547Z,99884.09
2022-12-09T03:24:39.617Z,99876.56
2022-12-09T03:27:17.596Z,99887.47
2022-12-09T03:29:53.434Z,99873.38
2022-12-09T03:32:29.972Z,99884.09
2022-12-09T03:35:10.024Z,99876.22
2022-12-09T03:37:47.042Z,99880.69
2022-12-09T03:40:26.305Z,99889.06
2022-12-09T03:43:05.213Z,99885.03
2022-12-09T03:45:40.381Z,99871.84
2022-12-09T03:48:15.440Z,99889.06
2022-12-09T03:50:56.553Z,99887.25
2022-12-09T03:53:38.464Z,99902.16
2022-12-09T03:56:19.022Z,99894.41
2022-12-09T03:58:57.214Z,99899.78
2022-12-09T04:01:33.186Z,99887.44
2022-12-09T04:04:08.424Z,99894.09
2022-12-09T04:06:43.584Z,99885.31
2022-12-09T04:09:19.955Z,99888.91
2022-12-09T04:11:54.147Z,99887.47
2022-12-09T04:14:28.867Z,99894.87
2022-12-09T04:17:03.527Z,99893.84
2022-12-09T04:19:38.824Z,99894.59
2022-12-09T04:22:13.463Z,99883.88
2022-12-09T04:24:49.753Z,99871.09
2022-12-09T04:27:23.919Z,99880.72
2022-12-09T04:29:59.281Z,99885.13
2022-12-09T04:32:33.759Z,99887.72
2022-12-09T04:35:09.001Z,99889.06
2022-12-09T04:37:43.272Z,99894.78
2022-12-09T04:40:23.710Z,99896.56
2022-12-09T04:42:58.965Z,99881.03
2022-12-09T04:45:33.198Z,99893.03
2022-12-09T04:48:08.004Z,99902.53
2022-12-09T04:50:42.592Z,99892.34
2022-12-09T04:53:16.903Z,99871.06
2022-12-09T04:56:00.735Z,99874.28
2022-12-09T04:58:35.528Z,99865.78
2022-12-09T05:01:12.337Z,99868.84
2022-12-09T05:03:50.224Z,99866.63
2022-12-09T05:06:25.361Z,99870.81
2022-12-09T05:08:59.786Z,99866.47
2022-12-09T05:11:36.350Z,99866.38
2022-12-09T05:14:11.374Z,99870.38
2022-12-09T05:16:46.187Z,99868.47
2022-12-09T05:19:20.601Z,99864.66
2022-12-09T05:21:55.764Z,99861.16
2022-12-09T05:24:30.212Z,99865.25
2022-12-09T05:27:06.116Z,99868.00
2022-12-09T05:29:40.643Z,99863.22
2022-12-09T05:32:15.447Z,99858.34
2022-12-09T05:34:50.150Z,99858.44
2022-12-09T05:37:25.201Z,99851.97
2022-12-09T05:39:59.902Z,99855.22
2022-12-09T05:42:41.070Z,99862.53
2022-12-09T05:45:16.254Z,99852.06
2022-12-09T05:47:50.791Z,99857.88
2022-12-09T05:50:25.729Z,99851.22
2022-12-09T05:53:00.912Z,99855.72
2022-12-09T05:55:35.308Z,99854.97
2022-12-09T05:58:11.573Z,99851.81
2022-12-09T06:00:45.924Z,99857.69
2022-12-09T06:03:20.797Z,99868.00
2022-12-09T06:05:55.292Z,99852.19
2022-12-09T06:08:30.546Z,99850.75
2022-12-09T06:11:05.673Z,99855.06
2022-12-09T06:13:42.189Z,99856.59
2022-12-09T06:16:19.594Z,99840.25
2022-12-09T06:18:54.511Z,99846.22
2022-12-09T06:21:29.302Z,99845.19
2022-12-09T06:24:03.809Z,99849.97
2022-12-09T06:26:38.218Z,99851.66
2022-12-09T06:29:14.144Z,99847.16
2022-12-09T06:31:49.018Z,99841.78
2022-12-09T06:34:24.572Z,99837.53
2022-12-09T06:36:58.843Z,99834.81
2022-12-09T06:39:33.669Z,99829.03
2022-12-09T06:42:08.455Z,99837.09
2022-12-09T06:44:44.869Z,99845.19
2022-12-09T06:47:19.238Z,99845.62
2022-12-09T06:49:54.086Z,99852.22
2022-12-09T06:52:28.868Z,99849.34
2022-12-09T06:55:03.676Z,99847.06
2022-12-09T06:57:38.247Z,99840.47
2022-12-09T07:00:15.956Z,99841.44
2022-12-09T07:02:50.336Z,99838.47
2022-12-09T07:05:26.270Z,99836.50
2022-12-09T07:08:01.479Z,99823.03
2022-12-09T07:10:37.226Z,99817.44
2022-12-09T07:13:12.118Z,99822.97
2022-12-09T07:15:48.044Z,99824.94
2022-12-09T07:18:22.411Z,99819.47
2022-12-09T07:20:57.551Z,99816.25
2022-12-09T07:23:31.931Z,99815.03
2022-12-09T07:26:07.527Z,99819.72
2022-12-09T07:28:43.482Z,99808.94
2022-12-09T07:31:21.625Z,99800.50
2022-12-09T07:33:58.858Z,99803.28
2022-12-09T07:36:35.327Z,99807.72
2022-12-09T07:39:14.075Z,99803.66
2022-12-09T07:41:53.833Z,99817.09
2022-12-09T07:44:28.933Z,99809.69
2022-12-09T07:47:04.919Z,99804.16
2022-12-09T07:49:41.505Z,99804.34
2022-12-09T07:52:16.372Z,99802.72
2022-12-09T07:54:51.094Z,99791.38
2022-12-09T07:57:25.654Z,99790.66
2022-12-09T08:00:00.762Z,99795.56
2022-12-09T08:02:37.300Z,99790.09
2022-12-09T08:05:12.267Z,99778.69
2022-12-09T08:07:47.312Z,99771.59
2022-12-09T08:10:22.196Z,99773.19
2022-12-09T08:12:56.734Z,99773.75
2022-12-09T08:15:31.620Z,99779.75
2022-12-09T08:18:07.773Z,99772.97
2022-12-09T08:20:42.754Z,99775.94
2022-12-09T08:23:17.361Z,99767.81
2022-12-09T08:25:55.129Z,99768.69
2022-12-09T08:28:31.533Z,99758.25
2022-12-09T08:31:09.239Z,99755.03
2022-12-09T08:33:45.705Z,99749.16
2022-12-09T08:36:22.401Z,99763.16
2022-12-09T08:38:59.486Z,99754.38
2022-12-09T08:41:39.439Z,99751.53
2022-12-09T08:44:16.281Z,99756.56
2022-12-09T08:46:53.186Z,99745.66
2022-12-09T08:49:29.868Z,99724.53
2022-12-09T08:52:05.127Z,99740.56
2022-12-09T08:54:39.487Z,99739.78
2022-12-09T08:57:14.171Z,99745.19
2022-12-09T08:59:48.678Z,99736.63
2022-12-09T09:02:23.700Z,99724.06
2022-12-09T09:05:00.215Z,99724.91
2022-12-09T09:07:35.470Z,99733.22
2022-12-09T09:10:11.445Z,99717.28
2022-12-09T09:12:46.451Z,99706.91
2022-12-09T09:15:21.434Z,99715.62
2022-12-09T09:17:56.083Z,99700.38
2022-12-09T09:20:33.533Z,99696.00
2022-12-09T09:23:08.780Z,99692.97
2022-12-09T09:25:44.871Z,99685.31
2022-12-09T09:28:19.959Z,99664.75
2022-12-09T09:31:00.821Z,99673.19
2022-12-09T09:33:35.810Z,99673.72
2022-12-09T09:36:16.410Z,99677.97
2022-12-09T09:38:53.090Z,99665.25
2022-12-09T09:41:43.588Z,99670.22
2022-12-09T09:44:27.504Z,99659.88
2022-12-09T09:47:03.889Z,99643.19
2022-12-09T09:49:46.166Z,99636.22
2022-12-09T09:52:24.097Z,99639.28
2022-12-09T09:54:59.343Z,99628.37
2022-12-09T09:57:40.385Z,99609.41
2022-12-09T10:00:24.320Z,99609.97
2022-12-09T10:03:01.377Z,99605.37
2022-12-09T10:05:40.301Z,99593.16
2022-12-09T10:08:32.769Z,99590.75
2022-12-09T10:11:18.297Z,99599.06
2022-12-09T10:13:58.491Z,99583.00
2022-12-09T10:16:41.713Z,99572.75
2022-12-09T10:19:22.620Z,99556.72
2022-12-09T10:21:59.099Z,99552.31
2022-12-09T10:24:40.575Z,99544.03
2022-12-09T10:27:24.460Z,99547.34
2022-12-09T10:30:03.698Z,99549.38
2022-12-09T10:32:39.398Z,99544.37
2022-12-09T10:35:16.410Z,99544.03
2022-12-09T10:37:53.557Z,99533.12
2022-12-09T10:40:36.950Z,99520.25
2022-12-09T10:43:38.876Z,99508.09
2022-12-09T10:46:24.362Z,99495.72
2022-12-09T10:49:04.051Z,99486.22
2022-12-09T10:51:39.714Z,99484.75
2022-12-09T10:54:24.485Z,99481.41
2022-12-09T10:57:08.944Z,99474.66
2022-12-09T10:59:56.764Z,99465.28
2022-12-09T11:02:33.126Z,99461.41
2022-12-09T11:05:25.503Z,99458.06
2022-12-09T11:08:00.807Z,99468.06
2022-12-09T11:10:36.452Z,99478.97
2022-12-09T11:13:20.215Z,99487.38
2022-12-09T11:15:59.455Z,99488.13
2022-12-09T11:18:38.904Z,99482.66
2022-12-09T11:21:35.099Z,99482.09
2022-12-09T11:24:22.097Z,99485.16
2022-12-09T11:26:58.014Z,99478.47
2022-12-09T11:29:34.419Z,99462.56
2022-12-09T11:32:16.951Z,99447.41
2022-12-09T11:34:51.908Z,99420.63
2022-12-09T11:37:26.595Z,99432.19
2022-12-09T11:40:01.876Z,99422.94
2022-12-09T11:42:36.396Z,99426.47
2022-12-09T11:45:21.181Z,99402.53
2022-12-09T11:51:00.231Z,99394.62
2022-12-09T11:53:35.824Z,99391.56
2022-12-09T11:56:18.517Z,99393.31
2022-12-09T11:58:59.211Z,99384.72
2022-12-09T12:01:46.048Z,99390.94
2022-12-09T12:04:25.966Z,99393.66
2022-12-09T12:07:04.264Z,99405.00
2022-12-09T12:09:44.179Z,99404.25
2022-12-09T12:12:25.575Z,99398.37
2022-12-09T12:15:11.722Z,99381.88
2022-12-09T12:17:53.021Z,99391.03
2022-12-09T12:20:40.205Z,99383.19
2022-12-09T12:23:34.939Z,99384.28
2022-12-09T12:26:17.327Z,99374.22
2022-12-09T12:29:11.279Z,99373.69
2022-12-09T12:32:07.878Z,99364.41
2022-12-09T12:34:52.774Z,99359.91
2022-12-09T12:37:41.020Z,99376.09
2022-12-09T12:40:28.414Z,99374.44
2022-12-09T12:43:32.207Z,99375.75
2022-12-09T12:46:21.975Z,99378.88
2022-12-09T12:49:12.721Z,99372.38
2022-12-09T12:51:57.315Z,99362.66
2022-12-09T12:54:46.556Z,99354.44
2022-12-09T12:57:29.691Z,99360.78
2022-12-09T13:00:12.276Z,99367.94
2022-12-09T13:02:58.778Z,99366.56
2022-12-09T13:05:38.793Z,99357.44
2022-12-09T13:08:20.736Z,99353.37
2022-12-09T13:10:59.352Z,99339.13
2022-12-09T13:13:39.534Z,99340.94
2022-12-09T13:16:19.480Z,99345.50
2022-12-09T13:18:54.206Z,99336.91
2022-12-09T13:21:28.864Z,99334.91
2022-12-09T13:24:16.010Z,99333.09
2022-12-09T13:26:56.865Z,99341.09
2022-12-09T13:29:44.772Z,99335.22
2022-12-09T13:32:33.028Z,99338.69
2022-12-09T13:35:14.323Z,99341.88
2022-12-09T13:38:01.340Z,99321.88
2022-12-09T13:40:39.037Z,99310.81
2022-12-09T13:43:22.518Z,99304.28
2022-12-09T13:45:59.301Z,99303.66
2022-12-09T13:48:52.312Z,99299.13
2022-12-09T13:51:27.588Z,99291.25
2022-12-09T13:54:07.053Z,99299.41
2022-12-09T13:56:44.135Z,99271.09
2022-12-09T13:59:42.582Z,99269.63
2022-12-09T14:02:25.096Z,99271.16
2022-12-09T14:05:06.839Z,99267.81
2022-12-09T14:07:45.077Z,99263.25
2022-12-09T14:10:40.578Z,99268.56
2022-12-09T14:13:28.020Z,99261.28
2022-12-09T14:16:16.152Z,99257.78
2022-12-09T14:18:50.476Z,99246.84
2022-12-09T14:21:31.561Z,99245.94
2022-12-09T14:24:36.777Z,99240.31
2022-12-09T14:27:21.810Z,99233.06
2022-12-09T14:29:59.120Z,99246.53
2022-12-09T14:32:36.721Z,99255.50
2022-12-09T14:35:28.464Z,99250.94
2022-12-09T14:38:22.461Z,99243.22
2022-12-09T14:41:04.727Z,99232.59
2022-12-09T14:43:56.459Z,99216.97
2022-12-09T14:46:34.147Z,99216.34
2022-12-09T14:49:16.632Z,99225.31
2022-12-09T14:51:52.946Z,99223.19
2022-12-09T14:54:29.448Z,99210.91
2022-12-09T14:57:06.986Z,99212.88
2022-12-09T14:59:50.319Z,99216.50
2022-12-09T15:02:30.038Z,99218.63
2022-12-09T15:05:05.619Z,99213.94
2022-12-09T15:07:45.881Z,99220.59
2022-12-09T15:10:23.453Z,99220.78
2022-12-09T15:12:58.442Z,99223.34
2022-12-09T15:15:36.565Z,99208.78
2022-12-09T15:18:19.255Z,99202.41
2022-12-09T15:20:57.126Z,99190.12
2022-12-09T15:23:33.323Z,99179.06
2022-12-09T15:26:10.188Z,99170.72
2022-12-09T15:28:49.050Z,99174.03
2022-12-09T15:31:26.800Z,99170.56
2022-12-09T15:34:12.611Z,99163.13
2022-12-09T15:36:51.239Z,99150.53
2022-12-09T15:39:29.416Z,99149.78
2022-12-09T15:42:09.562Z,99139.00
2022-12-09T15:44:49.598Z,99129.91
2022-12-09T15:47:27.952Z,99122.75
2022-12-09T15:50:15.053Z,99133.38
2022-12-09T15:52:52.938Z,99127.47
2022-12-09T15:55:32.626Z,99109.34
2022-12-09T15:58:11.409Z,99108.50
2022-12-09T16:00:49.283Z,99100.34
2022-12-09T16:03:27.700Z,99109.97
2022-12-09T16:06:06.166Z,99098.69
2022-12-09T16:08:43.948Z,99091.53
2022-12-09T16:11:36.592Z,99089.28
2022-12-09T16:14:12.514Z,99093.91
2022-12-09T16:16:49.277Z,99094.69
2022-12-09T16:19:32.527Z,99100.16
2022-12-09T16:22:17.266Z,99081.31
2022-12-09T16:27:57.332Z,99057.41
2022-12-09T16:30:46.776Z,99057.28
2022-12-09T16:33:24.356Z,99052.72
2022-12-09T16:36:02.310Z,99048.13
2022-12-09T16:38:38.668Z,99053.03
2022-12-09T16:41:13.941Z,99037.84
2022-12-09T16:43:57.219Z,99025.72
2022-12-09T16:46:42.658Z,99033.00
2022-12-09T16:49:17.083Z,99028.44
2022-12-09T16:51:51.972Z,99014.75
2022-12-09T16:54:32.569Z,99012.94
2022-12-09T16:57:07.501Z,99005.03
2022-12-09T16:59:43.038Z,98989.66
2022-12-09T17:02:24.095Z,98982.19
2022-12-09T17:04:58.303Z,98982.34
2022-12-09T17:07:33.016Z,98985.72
2022-12-09T17:10:13.696Z,98979.84
2022-12-09T17:12:48.528Z,98976.41
2022-12-09T17:15:23.182Z,98983.00
2022-12-09T17:18:00.158Z,98986.66
2022-12-09T17:20:34.686Z,98977.41
2022-12-09T17:23:09.354Z,98977.75
2022-12-09T17:25:45.030Z,98988.28
2022-12-09T17:28:19.771Z,98970.66
2022-12-09T17:30:54.364Z,98980.56
2022-12-09T17:33:30.807Z,98967.94
2022-12-09T17:36:05.727Z,98960.19
2022-12-09T17:38:41.195Z,98963.41
2022-12-09T17:41:20.733Z,98959.28
2022-12-09T17:43:57.881Z,98964.28
2022-12-09T17:46:32.734Z,98958.22
2022-12-09T17:49:07.632Z,98956.81
2022-12-09T17:51:42.153Z,98956.13
2022-12-09T17:54:16.825Z,98949.81
2022-12-09T17:56:53.671Z,98948.41
2022-12-09T17:59:28.399Z,98942.22
2022-12-09T18:02:03.701Z,98945.62
2022-12-09T18:04:38.644Z,98948.66
2022-12-09T18:07:13.034Z,98955.63
2022-12-09T18:09:54.207Z,98962.97
2022-12-09T18:12:29.948Z,98970.31
2022-12-09T18:15:05.384Z,98954.00
2022-12-09T18:17:39.535Z,98964.44
2022-12-09T18:20:14.081Z,98961.41
2022-12-09T18:22:48.627Z,98951.22
2022-12-09T18:25:23.119Z,98951.13
2022-12-09T18:27:58.784Z,98943.03
2022-12-09T18:30:33.893Z,98940.00
2022-12-09T18:33:08.461Z,98942.44
2022-12-09T18:35:43.150Z,98937.09
2022-12-09T18:38:17.380Z,98926.25
2022-12-09T18:41:03.724Z,98908.34
2022-12-09T18:43:41.396Z,98916.06
2022-12-09T18:46:23.847Z,98906.53
2022-12-09T18:49:01.195Z,98924.06
2022-12-09T18:51:36.401Z,98906.53
2022-12-09T18:54:15.697Z,98891.28
2022-12-09T18:56:50.714Z,98894.66
2022-12-09T18:59:26.563Z,98880.28
2022-12-09T19:02:01.064Z,98862.72
2022-12-09T19:04:35.598Z,98851.63
2022-12-09T19:07:14.084Z,98856.06
2022-12-09T19:09:48.544Z,98856.13
2022-12-09T19:12:46.357Z,98867.88
2022-12-09T19:15:19.091Z,98857.16
2022-12-09T19:17:53.977Z,98841.06
2022-12-09T19:20:29.187Z,98834.59
2022-12-09T19:23:05.058Z,98832.56
2022-12-09T19:25:42.376Z,98830.47
2022-12-09T19:28:17.574Z,98835.81
2022-12-09T19:30:53.201Z,98827.87
2022-12-09T19:33:27.793Z,98836.19
2022-12-09T19:36:04.250Z,98810.69
2022-12-09T19:38:39.030Z,98822.88
2022-12-09T19:41:13.375Z,98817.50
2022-12-09T19:43:49.166Z,98816.94
2022-12-09T19:46:26.502Z,98821.66
2022-12-09T19:49:01.674Z,98807.97
2022-12-09T19:51:36.084Z,98809.12
2022-12-09T19:54:12.318Z,98815.62
2022-12-09T19:56:47.875Z,98813.28
2022-12-09T19:59:22.743Z,98811.47
2022-12-09T20:01:58.326Z,98815.44
2022-12-09T20:04:50.867Z,98827.87
2022-12-09T20:07:25.625Z,98819.97
2022-12-09T20:10:00.377Z,98820.91
2022-12-09T20:12:38.362Z,98834.59
2022-12-09T20:15:13.048Z,98840.16
2022-12-09T20:17:48.858Z,98839.41
2022-12-09T20:20:24.431Z,98834.81
2022-12-09T20:22:58.930Z,98852.31
2022-12-09T20:25:34.652Z,98832.69
2022-12-09T20:28:09.436Z,98845.44
2022-12-09T20:30:44.120Z,98849.81
2022-12-09T20:33:19.659Z,98854.00
2022-12-09T20:35:54.343Z,98851.84
2022-12-09T20:38:28.840Z,98848.25
2022-12-09T20:41:05.103Z,98839.53
2022-12-09T20:43:42.557Z,98833.34
2022-12-09T20:46:21.426Z,98834.44
2022-12-09T20:48:57.919Z,98833.69
2022-12-09T20:51:34.532Z,98825.47
2022-12-09T20:54:11.238Z,98835.75
2022-12-09T20:56:46.018Z,98824.72
2022-12-09T20:59:20.609Z,98838.50
2022-12-09T21:01:56.040Z,98839.34
2022-12-09T21:04:32.040Z,98830.09
2022-12-09T21:07:06.866Z,98827.25
2022-12-09T21:09:49.515Z,98828.19
2022-12-09T21:12:24.259Z,98821.47
2022-12-09T21:14:58.969Z,98823.34
2022-12-09T21:17:33.960Z,98816.06
2022-12-09T21:20:11.327Z,98821.97
2022-12-09T21:22:59.220Z,98804.97
2022-12-09T21:25:40.435Z,98798.97
2022-12-09T21:28:15.591Z,98813.13
2022-12-09T21:30:50.017Z,98809.41
2022-12-09T21:33:25.391Z,98804.06
2022-12-09T21:36:01.334Z,98799.44
2022-12-09T21:38:36.555Z,98797.56
2022-12-09T21:41:14.663Z,98794.69
2022-12-09T21:43:49.684Z,98799.81
2022-12-09T21:46:25.455Z,98800.34
2022-12-09T21:49:04.172Z,98804.06
2022-12-09T21:51:40.112Z,98798.41
2022-12-09T21:54:14.804Z,98785.38
2022-12-09T21:56:49.352Z,98793.66
2022-12-09T21:59:24.257Z,98784.88
2022-12-09T22:01:58.681Z,98785.09
2022-12-09T22:04:34.758Z,98790.00
2022-12-09T22:07:10.230Z,98790.00
2022-12-09T22:09:44.975Z,98798.44
2022-12-09T22:12:19.202Z,98800.88
2022-12-09T22:14:54.753Z,98797.53
2022-12-09T22:17:29.167Z,98800.62
2022-12-09T22:20:49.067Z,98798.72
2022-12-09T22:23:01.095Z,98801.47
2022-12-09T22:25:35.563Z,98804.94
2022-12-09T22:28:09.714Z,98804.03
2022-12-09T22:30:44.229Z,98797.22
2022-12-09T22:33:18.474Z,98789.91
2022-12-09T22:35:54.179Z,98807.72
2022-12-09T22:38:30.398Z,98815.03
2022-12-09T22:41:06.275Z,98813.38
2022-12-09T22:43:40.846Z,98827.66
2022-12-09T22:46:17.901Z,98832.12
2022-12-09T22:48:53.141Z,98842.19
2022-12-09T22:51:29.766Z,98846.44
2022-12-09T22:54:08.164Z,98847.97
2022-12-09T22:56:44.045Z,98855.25
2022-12-09T22:59:19.700Z,98855.63
2022-12-09T23:01:54.326Z,98857.28
2022-12-09T23:04:28.487Z,98848.91
2022-12-09T23:07:02.992Z,98866.16
2022-12-09T23:09:38.879Z,98868.72
2022-12-09T23:12:13.387Z,98866.66
2022-12-09T23:14:47.610Z,98876.03
2022-12-09T23:17:22.094Z,98880.22
2022-12-09T23:19:56.378Z,98863.16
2022-12-09T23:22:30.866Z,98868.28
2022-12-09T23:25:06.904Z,98863.56
2022-12-09T23:27:41.570Z,98858.63
2022-12-09T23:30:15.936Z,98861.28
2022-12-09T23:32:50.411Z,98863.00
2022-12-09T23:35:24.588Z,98851.00
2022-12-09T23:37:59.077Z,98856.50
2022-12-09T23:40:34.643Z,98858.75
2022-12-09T23:43:09.105Z,98853.47
2022-12-09T23:45:43.300Z,98855.66
2022-12-09T23:48:17.812Z,98854.69
2022-12-09T23:50:51.947Z,98857.41
2022-12-09T23:53:26.688Z,98878.59
2022-12-09T23:56:02.181Z,98875.22
2022-12-09T23:58:36.671Z,98880.13
